sensor_id;sensor_type;location;lat;lon;timestamp;P1;durP1;ratioP1;P2;durP2;ratioP2
82028;SDS011;71590;52.216;13.448;2023-11-21T00:00:53;22.27;;;11.63;;
82028;SDS011;71590;52.216;13.448;2023-11-21T00:03:20;20.53;;;11.27;;
82028;SDS011;71590;52.216;13.448;2023-11-21T00:05:49;22.17;;;11.30;;
82028;SDS011;71590;52.216;13.448;2023-11-21T00:08:17;30.20;;;12.67;;
82028;SDS011;71590;52.216;13.448;2023-11-21T00:10:45;27.97;;;13.17;;
82028;SDS011;71590;52.216;13.448;2023-11-21T00:13:12;24.43;;;13.50;;
82028;SDS011;71590;52.216;13.448;2023-11-21T00:15:39;29.63;;;13.57;;
82028;SDS011;71590;52.216;13.448;2023-11-21T00:18:07;35.77;;;14.77;;
82028;SDS011;71590;52.216;13.448;2023-11-21T00:20:34;31.83;;;15.37;;
82028;SDS011;71590;52.216;13.448;2023-11-21T00:23:01;25.97;;;14.07;;
82028;SDS011;71590;52.216;13.448;2023-11-21T00:25:28;31.77;;;15.07;;
82028;SDS011;71590;52.216;13.448;2023-11-21T00:27:57;32.07;;;15.57;;
82028;SDS011;71590;52.216;13.448;2023-11-21T00:30:24;34.30;;;15.73;;
82028;SDS011;71590;52.216;13.448;2023-11-21T00:32:53;28.33;;;15.97;;
82028;SDS011;71590;52.216;13.448;2023-11-21T00:35:20;25.67;;;14.97;;
82028;SDS011;71590;52.216;13.448;2023-11-21T00:37:48;26.03;;;13.73;;
82028;SDS011;71590;52.216;13.448;2023-11-21T00:40:16;28.80;;;14.90;;
82028;SDS011;71590;52.216;13.448;2023-11-21T00:42:47;32.90;;;15.10;;
82028;SDS011;71590;52.216;13.448;2023-11-21T00:45:15;30.03;;;14.53;;
82028;SDS011;71590;52.216;13.448;2023-11-21T00:47:42;23.10;;;12.60;;
82028;SDS011;71590;52.216;13.448;2023-11-21T00:50:10;22.33;;;12.40;;
82028;SDS011;71590;52.216;13.448;2023-11-21T00:52:37;26.77;;;13.27;;
82028;SDS011;71590;52.216;13.448;2023-11-21T00:55:05;16.57;;;10.97;;
82028;SDS011;71590;52.216;13.448;2023-11-21T00:57:34;19.50;;;11.93;;
82028;SDS011;71590;52.216;13.448;2023-11-21T01:00:02;28.80;;;13.53;;
82028;SDS011;71590;52.216;13.448;2023-11-21T01:02:34;23.47;;;12.93;;
82028;SDS011;71590;52.216;13.448;2023-11-21T01:05:02;22.67;;;12.70;;
82028;SDS011;71590;52.216;13.448;2023-11-21T01:07:30;24.37;;;13.23;;
82028;SDS011;71590;52.216;13.448;2023-11-21T01:09:57;26.33;;;14.73;;
82028;SDS011;71590;52.216;13.448;2023-11-21T01:12:25;24.60;;;14.03;;
82028;SDS011;71590;52.216;13.448;2023-11-21T01:14:54;20.40;;;12.47;;
82028;SDS011;71590;52.216;13.448;2023-11-21T01:17:21;23.97;;;13.43;;
82028;SDS011;71590;52.216;13.448;2023-11-21T01:19:50;24.37;;;11.70;;
82028;SDS011;71590;52.216;13.448;2023-11-21T01:22:18;24.97;;;11.33;;
82028;SDS011;71590;52.216;13.448;2023-11-21T01:24:53;22.37;;;11.80;;
82028;SDS011;71590;52.216;13.448;2023-11-21T01:27:20;16.87;;;10.63;;
82028;SDS011;71590;52.216;13.448;2023-11-21T01:29:47;17.20;;;10.87;;
82028;SDS011;71590;52.216;13.448;2023-11-21T01:32:15;16.10;;;10.30;;
82028;SDS011;71590;52.216;13.448;2023-11-21T01:34:42;25.97;;;12.67;;
82028;SDS011;71590;52.216;13.448;2023-11-21T01:37:10;30.37;;;14.50;;
82028;SDS011;71590;52.216;13.448;2023-11-21T01:39:38;22.93;;;12.20;;
82028;SDS011;71590;52.216;13.448;2023-11-21T01:42:06;21.63;;;12.10;;
82028;SDS011;71590;52.216;13.448;2023-11-21T01:44:34;12.73;;;9.43;;
82028;SDS011;71590;52.216;13.448;2023-11-21T01:47:01;12.73;;;9.13;;
82028;SDS011;71590;52.216;13.448;2023-11-21T01:49:35;14.97;;;11.13;;
82028;SDS011;71590;52.216;13.448;2023-11-21T01:52:04;17.27;;;12.40;;
82028;SDS011;71590;52.216;13.448;2023-11-21T01:54:32;21.33;;;14.40;;
82028;SDS011;71590;52.216;13.448;2023-11-21T01:57:00;27.43;;;16.50;;
82028;SDS011;71590;52.216;13.448;2023-11-21T01:59:31;25.97;;;15.80;;
82028;SDS011;71590;52.216;13.448;2023-11-21T02:02:01;28.50;;;15.50;;
82028;SDS011;71590;52.216;13.448;2023-11-21T02:04:28;27.13;;;16.53;;
82028;SDS011;71590;52.216;13.448;2023-11-21T02:06:56;31.43;;;17.50;;
82028;SDS011;71590;52.216;13.448;2023-11-21T02:09:25;31.53;;;18.40;;
82028;SDS011;71590;52.216;13.448;2023-11-21T02:11:53;41.17;;;20.43;;
82028;SDS011;71590;52.216;13.448;2023-11-21T02:14:24;30.70;;;18.43;;
82028;SDS011;71590;52.216;13.448;2023-11-21T02:16:53;39.13;;;21.80;;
82028;SDS011;71590;52.216;13.448;2023-11-21T02:19:21;42.17;;;20.80;;
82028;SDS011;71590;52.216;13.448;2023-11-21T02:21:52;35.63;;;18.60;;
82028;SDS011;71590;52.216;13.448;2023-11-21T02:24:20;30.13;;;18.97;;
82028;SDS011;71590;52.216;13.448;2023-11-21T02:26:50;44.10;;;22.20;;
82028;SDS011;71590;52.216;13.448;2023-11-21T02:29:18;42.97;;;21.30;;
82028;SDS011;71590;52.216;13.448;2023-11-21T02:31:51;44.13;;;23.70;;
82028;SDS011;71590;52.216;13.448;2023-11-21T02:34:18;40.27;;;22.60;;
82028;SDS011;71590;52.216;13.448;2023-11-21T02:36:46;48.60;;;25.07;;
82028;SDS011;71590;52.216;13.448;2023-11-21T02:39:17;53.93;;;26.33;;
82028;SDS011;71590;52.216;13.448;2023-11-21T02:41:48;43.73;;;23.70;;
82028;SDS011;71590;52.216;13.448;2023-11-21T02:44:16;43.00;;;24.23;;
82028;SDS011;71590;52.216;13.448;2023-11-21T02:46:43;48.90;;;24.30;;
82028;SDS011;71590;52.216;13.448;2023-11-21T02:49:11;42.07;;;23.13;;
82028;SDS011;71590;52.216;13.448;2023-11-21T02:51:38;44.83;;;23.67;;
82028;SDS011;71590;52.216;13.448;2023-11-21T02:54:06;45.83;;;24.60;;
82028;SDS011;71590;52.216;13.448;2023-11-21T02:56:34;46.90;;;25.47;;
82028;SDS011;71590;52.216;13.448;2023-11-21T02:59:02;53.57;;;27.20;;
82028;SDS011;71590;52.216;13.448;2023-11-21T03:01:29;44.27;;;23.47;;
82028;SDS011;71590;52.216;13.448;2023-11-21T03:03:57;43.03;;;23.73;;
82028;SDS011;71590;52.216;13.448;2023-11-21T03:06:25;42.63;;;23.80;;
82028;SDS011;71590;52.216;13.448;2023-11-21T03:08:53;46.40;;;22.97;;
82028;SDS011;71590;52.216;13.448;2023-11-21T03:11:20;40.40;;;22.07;;
82028;SDS011;71590;52.216;13.448;2023-11-21T03:13:47;37.90;;;22.10;;
82028;SDS011;71590;52.216;13.448;2023-11-21T03:16:15;47.50;;;24.60;;
82028;SDS011;71590;52.216;13.448;2023-11-21T03:18:44;38.97;;;22.53;;
82028;SDS011;71590;52.216;13.448;2023-11-21T03:21:12;39.90;;;22.77;;
82028;SDS011;71590;52.216;13.448;2023-11-21T03:23:40;44.57;;;23.97;;
82028;SDS011;71590;52.216;13.448;2023-11-21T03:26:11;40.07;;;22.00;;
82028;SDS011;71590;52.216;13.448;2023-11-21T03:28:39;56.27;;;24.33;;
82028;SDS011;71590;52.216;13.448;2023-11-21T03:31:07;45.40;;;22.20;;
82028;SDS011;71590;52.216;13.448;2023-11-21T03:33:35;40.17;;;22.33;;
82028;SDS011;71590;52.216;13.448;2023-11-21T03:36:03;41.37;;;19.30;;
82028;SDS011;71590;52.216;13.448;2023-11-21T03:38:30;29.63;;;16.13;;
82028;SDS011;71590;52.216;13.448;2023-11-21T03:40:58;29.40;;;14.93;;
82028;SDS011;71590;52.216;13.448;2023-11-21T03:43:27;26.70;;;15.13;;
82028;SDS011;71590;52.216;13.448;2023-11-21T03:45:55;32.33;;;16.07;;
82028;SDS011;71590;52.216;13.448;2023-11-21T03:48:22;23.40;;;13.80;;
82028;SDS011;71590;52.216;13.448;2023-11-21T03:50:49;21.90;;;13.40;;
82028;SDS011;71590;52.216;13.448;2023-11-21T03:53:16;23.97;;;12.90;;
82028;SDS011;71590;52.216;13.448;2023-11-21T03:55:44;22.37;;;12.60;;
82028;SDS011;71590;52.216;13.448;2023-11-21T03:58:12;18.27;;;12.00;;
82028;SDS011;71590;52.216;13.448;2023-11-21T04:00:39;18.50;;;12.33;;
82028;SDS011;71590;52.216;13.448;2023-11-21T04:03:07;22.50;;;13.40;;
82028;SDS011;71590;52.216;13.448;2023-11-21T04:05:35;25.70;;;13.83;;
82028;SDS011;71590;52.216;13.448;2023-11-21T04:08:02;26.03;;;15.13;;
82028;SDS011;71590;52.216;13.448;2023-11-21T04:10:30;27.00;;;16.10;;
82028;SDS011;71590;52.216;13.448;2023-11-21T04:12:57;24.43;;;15.40;;
82028;SDS011;71590;52.216;13.448;2023-11-21T04:15:26;23.47;;;14.50;;
82028;SDS011;71590;52.216;13.448;2023-11-21T04:17:54;25.63;;;15.53;;
82028;SDS011;71590;52.216;13.448;2023-11-21T04:20:23;26.50;;;15.27;;
82028;SDS011;71590;52.216;13.448;2023-11-21T04:22:50;24.63;;;14.40;;
82028;SDS011;71590;52.216;13.448;2023-11-21T04:25:21;24.47;;;14.80;;
82028;SDS011;71590;52.216;13.448;2023-11-21T04:27:50;19.80;;;12.80;;
82028;SDS011;71590;52.216;13.448;2023-11-21T04:30:17;18.93;;;12.60;;
82028;SDS011;71590;52.216;13.448;2023-11-21T04:32:47;18.20;;;12.60;;
82028;SDS011;71590;52.216;13.448;2023-11-21T04:35:14;21.87;;;12.27;;
82028;SDS011;71590;52.216;13.448;2023-11-21T04:37:42;22.53;;;13.03;;
82028;SDS011;71590;52.216;13.448;2023-11-21T04:40:09;16.70;;;13.40;;
82028;SDS011;71590;52.216;13.448;2023-11-21T04:42:37;14.47;;;11.23;;
82028;SDS011;71590;52.216;13.448;2023-11-21T04:45:05;17.70;;;12.53;;
82028;SDS011;71590;52.216;13.448;2023-11-21T04:47:38;18.50;;;11.77;;
82028;SDS011;71590;52.216;13.448;2023-11-21T04:50:05;13.40;;;11.10;;
82028;SDS011;71590;52.216;13.448;2023-11-21T04:52:33;15.40;;;11.37;;
82028;SDS011;71590;52.216;13.448;2023-11-21T04:55:01;15.13;;;10.40;;
82028;SDS011;71590;52.216;13.448;2023-11-21T04:57:29;14.60;;;11.33;;
82028;SDS011;71590;52.216;13.448;2023-11-21T04:59:56;14.93;;;11.67;;
82028;SDS011;71590;52.216;13.448;2023-11-21T05:02:24;12.87;;;10.70;;
82028;SDS011;71590;52.216;13.448;2023-11-21T05:05:01;9.40;;;8.40;;
82028;SDS011;71590;52.216;13.448;2023-11-21T05:07:29;10.70;;;8.37;;
82028;SDS011;71590;52.216;13.448;2023-11-21T05:09:58;10.47;;;7.70;;
82028;SDS011;71590;52.216;13.448;2023-11-21T05:12:26;10.00;;;8.03;;
82028;SDS011;71590;52.216;13.448;2023-11-21T05:14:53;8.50;;;7.33;;
82028;SDS011;71590;52.216;13.448;2023-11-21T05:17:22;10.73;;;8.50;;
82028;SDS011;71590;52.216;13.448;2023-11-21T05:19:49;10.10;;;7.57;;
82028;SDS011;71590;52.216;13.448;2023-11-21T05:22:16;9.73;;;7.47;;
82028;SDS011;71590;52.216;13.448;2023-11-21T05:24:44;8.47;;;7.63;;
82028;SDS011;71590;52.216;13.448;2023-11-21T05:27:11;8.67;;;7.77;;
82028;SDS011;71590;52.216;13.448;2023-11-21T05:29:39;9.87;;;8.37;;
82028;SDS011;71590;52.216;13.448;2023-11-21T05:32:06;9.77;;;7.93;;
82028;SDS011;71590;52.216;13.448;2023-11-21T05:34:34;8.47;;;7.47;;
82028;SDS011;71590;52.216;13.448;2023-11-21T05:37:03;8.97;;;8.07;;
82028;SDS011;71590;52.216;13.448;2023-11-21T05:39:31;9.70;;;8.57;;
82028;SDS011;71590;52.216;13.448;2023-11-21T05:41:59;8.50;;;7.57;;
82028;SDS011;71590;52.216;13.448;2023-11-21T05:44:26;10.73;;;7.97;;
82028;SDS011;71590;52.216;13.448;2023-11-21T05:46:55;8.00;;;7.20;;
82028;SDS011;71590;52.216;13.448;2023-11-21T05:49:24;8.43;;;7.53;;
82028;SDS011;71590;52.216;13.448;2023-11-21T05:51:53;7.67;;;6.83;;
82028;SDS011;71590;52.216;13.448;2023-11-21T05:54:21;7.90;;;7.10;;
82028;SDS011;71590;52.216;13.448;2023-11-21T05:56:50;7.10;;;6.40;;
82028;SDS011;71590;52.216;13.448;2023-11-21T05:59:17;7.47;;;6.10;;
82028;SDS011;71590;52.216;13.448;2023-11-21T06:01:48;6.23;;;5.63;;
82028;SDS011;71590;52.216;13.448;2023-11-21T06:04:16;7.53;;;6.33;;
82028;SDS011;71590;52.216;13.448;2023-11-21T06:06:45;5.70;;;5.20;;
82028;SDS011;71590;52.216;13.448;2023-11-21T06:09:12;6.37;;;5.43;;
82028;SDS011;71590;52.216;13.448;2023-11-21T06:11:39;6.87;;;5.03;;
82028;SDS011;71590;52.216;13.448;2023-11-21T06:14:07;6.23;;;5.50;;
82028;SDS011;71590;52.216;13.448;2023-11-21T06:16:36;4.97;;;4.47;;
82028;SDS011;71590;52.216;13.448;2023-11-21T06:19:03;4.53;;;4.10;;
82028;SDS011;71590;52.216;13.448;2023-11-21T06:21:32;5.83;;;5.10;;
82028;SDS011;71590;52.216;13.448;2023-11-21T06:24:01;6.03;;;4.80;;
82028;SDS011;71590;52.216;13.448;2023-11-21T06:26:28;5.73;;;4.87;;
82028;SDS011;71590;52.216;13.448;2023-11-21T06:28:58;7.33;;;5.10;;
82028;SDS011;71590;52.216;13.448;2023-11-21T06:31:25;5.70;;;4.87;;
82028;SDS011;71590;52.216;13.448;2023-11-21T06:33:53;5.37;;;4.87;;
82028;SDS011;71590;52.216;13.448;2023-11-21T06:36:21;5.13;;;4.63;;
82028;SDS011;71590;52.216;13.448;2023-11-21T06:38:48;6.20;;;5.60;;
82028;SDS011;71590;52.216;13.448;2023-11-21T06:41:15;6.33;;;5.53;;
82028;SDS011;71590;52.216;13.448;2023-11-21T06:43:44;5.67;;;5.07;;
82028;SDS011;71590;52.216;13.448;2023-11-21T06:46:13;7.40;;;6.43;;
82028;SDS011;71590;52.216;13.448;2023-11-21T06:48:44;7.53;;;6.10;;
82028;SDS011;71590;52.216;13.448;2023-11-21T06:51:11;8.23;;;6.80;;
82028;SDS011;71590;52.216;13.448;2023-11-21T06:53:40;8.10;;;7.23;;
82028;SDS011;71590;52.216;13.448;2023-11-21T06:56:17;7.70;;;6.80;;
82028;SDS011;71590;52.216;13.448;2023-11-21T06:58:45;8.47;;;7.40;;
82028;SDS011;71590;52.216;13.448;2023-11-21T07:01:13;9.40;;;7.00;;
82028;SDS011;71590;52.216;13.448;2023-11-21T07:03:41;8.60;;;7.43;;
82028;SDS011;71590;52.216;13.448;2023-11-21T07:06:09;7.60;;;6.73;;
82028;SDS011;71590;52.216;13.448;2023-11-21T07:08:37;8.83;;;6.73;;
82028;SDS011;71590;52.216;13.448;2023-11-21T07:11:04;7.27;;;6.50;;
82028;SDS011;71590;52.216;13.448;2023-11-21T07:13:31;7.57;;;6.67;;
82028;SDS011;71590;52.216;13.448;2023-11-21T07:15:59;7.70;;;6.73;;
82028;SDS011;71590;52.216;13.448;2023-11-21T07:18:26;9.90;;;7.10;;
82028;SDS011;71590;52.216;13.448;2023-11-21T07:20:54;6.73;;;6.03;;
82028;SDS011;71590;52.216;13.448;2023-11-21T07:23:21;6.77;;;6.10;;
82028;SDS011;71590;52.216;13.448;2023-11-21T07:25:49;7.67;;;6.87;;
82028;SDS011;71590;52.216;13.448;2023-11-21T07:28:16;5.53;;;5.03;;
82028;SDS011;71590;52.216;13.448;2023-11-21T07:30:44;7.13;;;5.90;;
82028;SDS011;71590;52.216;13.448;2023-11-21T07:33:11;6.63;;;5.57;;
82028;SDS011;71590;52.216;13.448;2023-11-21T07:35:39;6.60;;;5.87;;
82028;SDS011;71590;52.216;13.448;2023-11-21T07:38:07;6.43;;;5.83;;
82028;SDS011;71590;52.216;13.448;2023-11-21T07:40:35;6.70;;;6.00;;
82028;SDS011;71590;52.216;13.448;2023-11-21T07:43:02;7.33;;;5.60;;
82028;SDS011;71590;52.216;13.448;2023-11-21T07:45:30;5.53;;;5.07;;
82028;SDS011;71590;52.216;13.448;2023-11-21T07:50:28;5.60;;;5.10;;
82028;SDS011;71590;52.216;13.448;2023-11-21T07:52:55;6.63;;;5.13;;
82028;SDS011;71590;52.216;13.448;2023-11-21T07:55:23;5.83;;;4.73;;
82028;SDS011;71590;52.216;13.448;2023-11-21T07:57:51;5.70;;;5.10;;
82028;SDS011;71590;52.216;13.448;2023-11-21T08:00:19;5.97;;;5.47;;
82028;SDS011;71590;52.216;13.448;2023-11-21T08:02:47;5.47;;;4.97;;
82028;SDS011;71590;52.216;13.448;2023-11-21T08:05:15;6.07;;;5.47;;
82028;SDS011;71590;52.216;13.448;2023-11-21T08:07:53;5.23;;;4.73;;
82028;SDS011;71590;52.216;13.448;2023-11-21T08:10:20;5.27;;;4.77;;
82028;SDS011;71590;52.216;13.448;2023-11-21T08:12:48;5.23;;;4.83;;
82028;SDS011;71590;52.216;13.448;2023-11-21T08:15:17;6.33;;;5.10;;
82028;SDS011;71590;52.216;13.448;2023-11-21T08:17:44;5.83;;;5.23;;
82028;SDS011;71590;52.216;13.448;2023-11-21T08:20:11;6.63;;;5.03;;
82028;SDS011;71590;52.216;13.448;2023-11-21T08:22:39;6.07;;;5.43;;
82028;SDS011;71590;52.216;13.448;2023-11-21T08:25:07;6.30;;;5.57;;
82028;SDS011;71590;52.216;13.448;2023-11-21T08:27:34;8.27;;;5.27;;
82028;SDS011;71590;52.216;13.448;2023-11-21T08:30:02;5.80;;;5.30;;
82028;SDS011;71590;52.216;13.448;2023-11-21T08:32:30;7.00;;;5.00;;
82028;SDS011;71590;52.216;13.448;2023-11-21T08:34:59;7.53;;;5.40;;
82028;SDS011;71590;52.216;13.448;2023-11-21T08:37:28;9.77;;;5.27;;
82028;SDS011;71590;52.216;13.448;2023-11-21T08:39:59;7.00;;;5.20;;
82028;SDS011;71590;52.216;13.448;2023-11-21T08:42:27;9.13;;;5.53;;
82028;SDS011;71590;52.216;13.448;2023-11-21T08:44:56;7.87;;;5.57;;
82028;SDS011;71590;52.216;13.448;2023-11-21T08:47:27;10.90;;;5.77;;
82028;SDS011;71590;52.216;13.448;2023-11-21T08:49:54;10.90;;;6.10;;
82028;SDS011;71590;52.216;13.448;2023-11-21T08:52:22;10.77;;;7.27;;
82028;SDS011;71590;52.216;13.448;2023-11-21T08:54:50;9.67;;;7.03;;
82028;SDS011;71590;52.216;13.448;2023-11-21T08:57:23;10.87;;;7.23;;
82028;SDS011;71590;52.216;13.448;2023-11-21T08:59:51;11.77;;;7.43;;
82028;SDS011;71590;52.216;13.448;2023-11-21T09:02:27;10.57;;;6.90;;
82028;SDS011;71590;52.216;13.448;2023-11-21T09:04:54;11.40;;;7.27;;
82028;SDS011;71590;52.216;13.448;2023-11-21T09:07:22;10.07;;;6.53;;
82028;SDS011;71590;52.216;13.448;2023-11-21T09:09:50;10.60;;;6.80;;
82028;SDS011;71590;52.216;13.448;2023-11-21T09:12:17;10.87;;;5.87;;
82028;SDS011;71590;52.216;13.448;2023-11-21T09:14:45;7.47;;;5.20;;
82028;SDS011;71590;52.216;13.448;2023-11-21T09:17:13;9.70;;;6.33;;
82028;SDS011;71590;52.216;13.448;2023-11-21T09:19:41;11.33;;;6.50;;
82028;SDS011;71590;52.216;13.448;2023-11-21T09:22:11;10.47;;;6.80;;
82028;SDS011;71590;52.216;13.448;2023-11-21T09:24:39;10.73;;;6.73;;
82028;SDS011;71590;52.216;13.448;2023-11-21T09:27:06;13.50;;;7.63;;
82028;SDS011;71590;52.216;13.448;2023-11-21T09:29:33;11.67;;;7.33;;
82028;SDS011;71590;52.216;13.448;2023-11-21T09:32:01;12.00;;;8.30;;
82028;SDS011;71590;52.216;13.448;2023-11-21T09:34:29;13.60;;;8.17;;
82028;SDS011;71590;52.216;13.448;2023-11-21T09:36:58;13.50;;;8.47;;
82028;SDS011;71590;52.216;13.448;2023-11-21T09:39:25;13.93;;;8.17;;
82028;SDS011;71590;52.216;13.448;2023-11-21T09:41:56;9.87;;;6.83;;
82028;SDS011;71590;52.216;13.448;2023-11-21T09:44:30;11.83;;;6.90;;
82028;SDS011;71590;52.216;13.448;2023-11-21T09:46:59;11.17;;;5.93;;
82028;SDS011;71590;52.216;13.448;2023-11-21T09:49:27;9.00;;;6.07;;
82028;SDS011;71590;52.216;13.448;2023-11-21T09:51:55;7.70;;;5.20;;
82028;SDS011;71590;52.216;13.448;2023-11-21T09:54:23;6.97;;;5.73;;
82028;SDS011;71590;52.216;13.448;2023-11-21T09:56:51;5.60;;;4.67;;
82028;SDS011;71590;52.216;13.448;2023-11-21T09:59:19;5.57;;;4.30;;
82028;SDS011;71590;52.216;13.448;2023-11-21T10:01:47;8.27;;;4.63;;
82028;SDS011;71590;52.216;13.448;2023-11-21T10:04:15;3.93;;;3.53;;
82028;SDS011;71590;52.216;13.448;2023-11-21T10:06:44;5.07;;;3.80;;
82028;SDS011;71590;52.216;13.448;2023-11-21T10:09:12;4.00;;;3.53;;
82028;SDS011;71590;52.216;13.448;2023-11-21T10:11:41;4.30;;;3.87;;
82028;SDS011;71590;52.216;13.448;2023-11-21T10:14:10;3.50;;;3.20;;
82028;SDS011;71590;52.216;13.448;2023-11-21T10:16:41;3.30;;;3.00;;
82028;SDS011;71590;52.216;13.448;2023-11-21T10:19:10;3.17;;;2.97;;
82028;SDS011;71590;52.216;13.448;2023-11-21T10:21:42;2.93;;;2.67;;
82028;SDS011;71590;52.216;13.448;2023-11-21T10:24:10;2.80;;;2.60;;
82028;SDS011;71590;52.216;13.448;2023-11-21T10:26:39;2.40;;;2.20;;
82028;SDS011;71590;52.216;13.448;2023-11-21T10:29:18;2.90;;;2.50;;
82028;SDS011;71590;52.216;13.448;2023-11-21T10:31:51;3.40;;;3.10;;
82028;SDS011;71590;52.216;13.448;2023-11-21T10:34:21;4.27;;;2.77;;
82028;SDS011;71590;52.216;13.448;2023-11-21T10:36:49;2.27;;;2.07;;
82028;SDS011;71590;52.216;13.448;2023-11-21T10:39:17;2.87;;;2.33;;
82028;SDS011;71590;52.216;13.448;2023-11-21T10:41:46;3.53;;;2.77;;
82028;SDS011;71590;52.216;13.448;2023-11-21T10:44:17;2.90;;;2.60;;
82028;SDS011;71590;52.216;13.448;2023-11-21T10:46:48;3.00;;;2.73;;
82028;SDS011;71590;52.216;13.448;2023-11-21T10:49:20;4.13;;;3.23;;
82028;SDS011;71590;52.216;13.448;2023-11-21T10:51:47;2.63;;;2.43;;
82028;SDS011;71590;52.216;13.448;2023-11-21T10:54:19;2.67;;;2.47;;
82028;SDS011;71590;52.216;13.448;2023-11-21T10:56:50;2.30;;;2.10;;
82028;SDS011;71590;52.216;13.448;2023-11-21T10:59:20;2.63;;;2.20;;
82028;SDS011;71590;52.216;13.448;2023-11-21T11:01:51;3.10;;;2.20;;
82028;SDS011;71590;52.216;13.448;2023-11-21T11:04:19;2.40;;;2.20;;
82028;SDS011;71590;52.216;13.448;2023-11-21T11:06:50;2.10;;;1.80;;
82028;SDS011;71590;52.216;13.448;2023-11-21T11:09:18;1.73;;;1.63;;
82028;SDS011;71590;52.216;13.448;2023-11-21T11:11:45;2.67;;;1.73;;
82028;SDS011;71590;52.216;13.448;2023-11-21T11:14:13;1.90;;;1.80;;
82028;SDS011;71590;52.216;13.448;2023-11-21T11:16:41;2.57;;;1.97;;
82028;SDS011;71590;52.216;13.448;2023-11-21T11:19:09;1.67;;;1.57;;
82028;SDS011;71590;52.216;13.448;2023-11-21T11:21:45;2.13;;;2.03;;
82028;SDS011;71590;52.216;13.448;2023-11-21T11:24:29;1.80;;;1.70;;
82028;SDS011;71590;52.216;13.448;2023-11-21T11:32:31;1.70;;;1.60;;
82028;SDS011;71590;52.216;13.448;2023-11-21T11:35:04;1.50;;;1.40;;
82028;SDS011;71590;52.216;13.448;2023-11-21T11:37:34;1.93;;;1.73;;
82028;SDS011;71590;52.216;13.448;2023-11-21T11:40:05;2.30;;;1.40;;
82028;SDS011;71590;52.216;13.448;2023-11-21T11:42:32;2.63;;;1.60;;
82028;SDS011;71590;52.216;13.448;2023-11-21T11:45:00;1.70;;;1.60;;
82028;SDS011;71590;52.216;13.448;2023-11-21T11:47:28;1.73;;;1.63;;
82028;SDS011;71590;52.216;13.448;2023-11-21T11:55:08;1.90;;;1.80;;
82028;SDS011;71590;52.216;13.448;2023-11-21T11:57:40;2.00;;;1.90;;
82028;SDS011;71590;52.216;13.448;2023-11-21T12:00:12;2.30;;;2.20;;
82028;SDS011;71590;52.216;13.448;2023-11-21T12:02:50;2.63;;;2.43;;
82028;SDS011;71590;52.216;13.448;2023-11-21T12:05:19;2.10;;;1.90;;
82028;SDS011;71590;52.216;13.448;2023-11-21T12:07:50;2.27;;;2.17;;
82028;SDS011;71590;52.216;13.448;2023-11-21T12:10:22;3.10;;;2.80;;
82028;SDS011;71590;52.216;13.448;2023-11-21T12:12:52;2.40;;;2.20;;
82028;SDS011;71590;52.216;13.448;2023-11-21T12:15:19;2.53;;;2.30;;
82028;SDS011;71590;52.216;13.448;2023-11-21T12:17:48;2.60;;;2.40;;
82028;SDS011;71590;52.216;13.448;2023-11-21T12:20:17;3.67;;;2.60;;
82028;SDS011;71590;52.216;13.448;2023-11-21T12:22:46;3.10;;;2.70;;
82028;SDS011;71590;52.216;13.448;2023-11-21T12:25:23;2.80;;;2.50;;
82028;SDS011;71590;52.216;13.448;2023-11-21T12:27:53;2.40;;;2.30;;
82028;SDS011;71590;52.216;13.448;2023-11-21T12:30:22;2.77;;;2.57;;
82028;SDS011;71590;52.216;13.448;2023-11-21T12:32:50;2.93;;;2.67;;
82028;SDS011;71590;52.216;13.448;2023-11-21T12:35:18;3.03;;;2.73;;
82028;SDS011;71590;52.216;13.448;2023-11-21T12:37:46;2.73;;;2.53;;
82028;SDS011;71590;52.216;13.448;2023-11-21T12:40:14;2.83;;;2.63;;
82028;SDS011;71590;52.216;13.448;2023-11-21T12:42:42;3.10;;;2.90;;
82028;SDS011;71590;52.216;13.448;2023-11-21T12:45:10;3.70;;;2.80;;
82028;SDS011;71590;52.216;13.448;2023-11-21T12:47:42;3.00;;;2.67;;
82028;SDS011;71590;52.216;13.448;2023-11-21T12:50:10;3.23;;;2.93;;
82028;SDS011;71590;52.216;13.448;2023-11-21T12:52:41;3.17;;;2.97;;
82028;SDS011;71590;52.216;13.448;2023-11-21T12:55:17;2.80;;;2.60;;
82028;SDS011;71590;52.216;13.448;2023-11-21T12:57:44;3.20;;;2.67;;
82028;SDS011;71590;52.216;13.448;2023-11-21T13:00:12;2.50;;;2.30;;
82028;SDS011;71590;52.216;13.448;2023-11-21T13:02:51;2.67;;;2.47;;
82028;SDS011;71590;52.216;13.448;2023-11-21T13:05:24;3.40;;;2.40;;
82028;SDS011;71590;52.216;13.448;2023-11-21T13:07:52;2.80;;;2.60;;
82028;SDS011;71590;52.216;13.448;2023-11-21T13:10:24;2.63;;;2.43;;
82028;SDS011;71590;52.216;13.448;2023-11-21T13:12:53;3.27;;;2.97;;
82028;SDS011;71590;52.216;13.448;2023-11-21T13:15:21;2.93;;;2.53;;
82028;SDS011;71590;52.216;13.448;2023-11-21T13:17:49;2.70;;;2.50;;
82028;SDS011;71590;52.216;13.448;2023-11-21T13:20:17;2.97;;;2.77;;
82028;SDS011;71590;52.216;13.448;2023-11-21T13:22:50;2.40;;;2.20;;
82028;SDS011;71590;52.216;13.448;2023-11-21T13:25:23;2.80;;;2.60;;
82028;SDS011;71590;52.216;13.448;2023-11-21T13:27:54;3.77;;;2.33;;
82028;SDS011;71590;52.216;13.448;2023-11-21T13:30:22;2.60;;;2.40;;
82028;SDS011;71590;52.216;13.448;2023-11-21T13:32:54;2.57;;;2.30;;
82028;SDS011;71590;52.216;13.448;2023-11-21T13:35:28;2.40;;;2.20;;
82028;SDS011;71590;52.216;13.448;2023-11-21T13:38:06;2.90;;;2.67;;
82028;SDS011;71590;52.216;13.448;2023-11-21T13:40:34;2.67;;;2.40;;
82028;SDS011;71590;52.216;13.448;2023-11-21T13:43:09;2.67;;;2.40;;
82028;SDS011;71590;52.216;13.448;2023-11-21T13:45:37;3.80;;;3.00;;
82028;SDS011;71590;52.216;13.448;2023-11-21T13:48:08;2.73;;;2.43;;
82028;SDS011;71590;52.216;13.448;2023-11-21T13:50:40;3.67;;;2.97;;
82028;SDS011;71590;52.216;13.448;2023-11-21T13:53:28;2.80;;;2.50;;
82028;SDS011;71590;52.216;13.448;2023-11-21T13:55:55;3.50;;;3.20;;
82028;SDS011;71590;52.216;13.448;2023-11-21T13:58:26;3.57;;;3.23;;
82028;SDS011;71590;52.216;13.448;2023-11-21T14:01:17;2.93;;;2.70;;
82028;SDS011;71590;52.216;13.448;2023-11-21T14:04:05;4.00;;;3.47;;
82028;SDS011;71590;52.216;13.448;2023-11-21T14:06:45;4.70;;;3.80;;
82028;SDS011;71590;52.216;13.448;2023-11-21T14:09:18;3.97;;;3.67;;
82028;SDS011;71590;52.216;13.448;2023-11-21T14:11:49;4.07;;;3.73;;
82028;SDS011;71590;52.216;13.448;2023-11-21T14:14:19;4.70;;;4.30;;
82028;SDS011;71590;52.216;13.448;2023-11-21T14:16:47;3.97;;;3.67;;
82028;SDS011;71590;52.216;13.448;2023-11-21T14:19:15;4.70;;;4.30;;
82028;SDS011;71590;52.216;13.448;2023-11-21T14:21:43;4.40;;;4.00;;
82028;SDS011;71590;52.216;13.448;2023-11-21T14:24:11;4.60;;;4.20;;
82028;SDS011;71590;52.216;13.448;2023-11-21T14:26:45;4.50;;;3.90;;
82028;SDS011;71590;52.216;13.448;2023-11-21T14:29:14;4.40;;;4.00;;
82028;SDS011;71590;52.216;13.448;2023-11-21T14:31:46;4.60;;;4.20;;
82028;SDS011;71590;52.216;13.448;2023-11-21T14:34:15;4.17;;;3.83;;
82028;SDS011;71590;52.216;13.448;2023-11-21T14:36:47;4.30;;;3.90;;
82028;SDS011;71590;52.216;13.448;2023-11-21T14:39:16;4.00;;;3.70;;
82028;SDS011;71590;52.216;13.448;2023-11-21T14:41:50;3.73;;;3.40;;
82028;SDS011;71590;52.216;13.448;2023-11-21T14:44:19;3.53;;;3.33;;
82028;SDS011;71590;52.216;13.448;2023-11-21T14:46:50;3.77;;;3.47;;